Detalii statie FLORA ARNO ARAD [00001998]

Toti senzorii

Date Temperatura solului [C]Precipitatii [mm]Voltaj baterie [mV]Leaf Wetness [Min]HC Air temperature [C]HC Relative humidity [%]Punctul de roua [C]
medieminmaxsumaultimatimpmedieminmaxmediemediemin
2020-06-02 07:00:00 15.6 15.6 15.8 0 6932 9.34 8.89 9.64 100 9.2 8.8
2020-06-02 08:00:00 15.4 15.3 15.6 0 6982 10.05 9.66 10.63 100 10 9.6
2020-06-02 09:00:00 15.3 15.1 15.5 0 7080 11.31 10.8 13.04 100 11.2 10.8
2020-06-02 10:00:00 15.3 15.2 15.4 0 7108 14.78 13.32 15.64 94.51 13.7 12.6
2020-06-02 11:00:00 15.3 15.2 15.5 0 7284 16.47 15.74 16.97 75.07 11.8 10.6
2020-06-02 12:00:00 15.6 15.5 15.8 0 7372 17.45 16.86 18.12 72.05 12.2 11.5
2020-06-02 13:00:00 15.9 15.7 16.2 0 7324 17.69 16.86 18.61 72.82 12.6 11.7
2020-06-02 14:00:00 16.3 16.2 16.6 0 7372 18.51 17.76 19.42 72.24 13.2 11
2020-06-02 15:00:00 16.7 16.6 17 0 7372 17.34 16.76 18.42 67.16 11 10.3
2020-06-02 16:00:00 17 16.8 17.2 0 7226 16.23 15.94 17.15 78.22 12.2 11.2
2020-06-02 17:00:00 17.1 17 17.2 0 7304 16.67 15.89 17.71 80.3 13.1 12.3
2020-06-02 18:00:00 17 17 17.3 0 7314 18.05 17.37 19.14 72.86 12.9 12.2
2020-06-02 19:00:00 17.1 17 17.4 0 7362 17.55 17.24 18.34 73.43 12.5 12.1
2020-06-02 20:00:00 17.2 17.2 17.4 0 7362 17.09 16.73 17.72 77.03 12.8 12.5
2020-06-02 21:00:00 17.2 17.2 17.4 0 7040 15.53 14.04 17.51 93.35 14.3 13.6
2020-06-02 22:00:00 17.1 17 17.3 0 6992 13.49 12.75 13.91 100 13.4 12.7
2020-06-02 23:00:00 17 16.9 17.1 0 6972 11.44 10.6 12.98 100 11.4 10.6
2020-06-03 00:00:00 16.8 16.7 17 0 6962 10.68 10.29 11.39 100 10.6 10.2
2020-06-03 01:00:00 16.6 16.5 16.7 0 6952 10.08 9.39 10.35 100 10 9.3
2020-06-03 02:00:00 16.4 16.3 16.7 0 6942 9.51 8.98 9.8 100 9.4 8.9
2020-06-03 03:00:00 16.2 16.1 16.4 0 6932 9.55 9.28 9.86 100 9.5 9.2
2020-06-03 04:00:00 16 15.9 16.1 0 6942 8.81 7.75 9.42 100 8.7 7.7
2020-06-03 05:00:00 15.8 15.7 16 0 6932 7.69 7.41 7.85 100 7.6 7.4
2020-06-03 06:00:00 15.6 15.6 15.8 0 6904 7.21 6.86 7.45 100 7.1 6.8
2020-06-03 07:00:00 15.4 15.3 15.6 0 6932 7.27 6.87 7.85 100 7.2 6.8
2020-06-03 08:00:00 15.3 15.2 15.4 0 7020 8.73 8.01 9.68 100 8.6 8
2020-06-03 09:00:00 15.2 15.1 15.3 0 7274 10.71 9.45 12.94 100 10.6 9.4
2020-06-03 10:00:00 15.1 15 15.3 0 7362 14.94 13.79 15.95 100 14.9 13.7
2020-06-03 11:00:00 15.3 15 15.5 0 7372 17.31 16.33 18.53 100 17.2 16.3
2020-06-03 12:00:00 15.6 15.5 15.8 0 7372 18.89 17.75 19.6 100 18.8 17.7
2020-06-03 13:00:00 16.1 15.8 16.5 0 7352 20.72 19.69 21.51 95.23 19.7 19.1
2020-06-03 14:00:00 16.6 16.4 17 0 7362 19.67 18.6 20.22 92.71 18.3 17.9
2020-06-03 15:00:00 17.1 16.9 17.4 0.2 7216 19.53 17.32 21.56 97.84 19 17.3
2020-06-03 16:00:00 17.4 17.3 17.6 1 7060 19.54 15.08 21.75 97.19 18.9 15
2020-06-03 17:00:00 17.6 17.6 17.7 9 7392 11.71 9.81 13.34 100 11.6 9.8
2020-06-03 18:00:00 17.2 17 17.5 0 7382 15.21 13.67 17.03 100 15.1 13.6
2020-06-03 19:00:00 16.8 16.8 17 0 7284 16.54 16.24 16.97 100 16.5 16.2
2020-06-03 20:00:00 16.8 16.7 16.9 0 7362 16.28 15.67 16.75 100 16.2 15.6
2020-06-03 21:00:00 16.6 16.5 16.7 0 7010 14.94 14.25 15.59 100 14.8 14.2
2020-06-03 22:00:00 16.6 16.4 16.7 0 6992 13.93 13.7 14.1 100 13.9 13.7
2020-06-03 23:00:00 16.5 16.3 16.6 0 6972 13.65 13.51 13.75 100 13.6 13.5
2020-06-04 00:00:00 16.3 16.2 16.5 0 6972 12.83 12.45 13.41 100 12.7 12.4
2020-06-04 01:00:00 16.2 16.2 16.3 0 6942 12.01 11.5 12.32 100 11.9 11.5
2020-06-04 02:00:00 16.1 15.9 16.2 0 6952 11.28 10.98 11.51 100 11.2 10.9
2020-06-04 03:00:00 15.9 15.8 16.1 0 6942 10.79 10.59 10.99 100 10.7 10.5
2020-06-04 04:00:00 15.7 15.7 15.9 0 6942 10.3 10.11 10.48 100 10.2 10.1
2020-06-04 05:00:00 15.6 15.5 15.8 0 6942 9.95 9.86 10.09 100 9.9 9.8
2020-06-04 06:00:00 15.5 15.3 15.6 0 6914 9.9 9.78 10.05 100 9.8 9.7